createdAt,value
2023-05-15T00:00:10.763Z,10.10
2023-05-15T00:02:38.959Z,10.10
2023-05-15T00:05:08.298Z,10.20
2023-05-15T00:07:36.861Z,10.20
2023-05-15T00:10:05.125Z,10.20
2023-05-15T00:12:33.101Z,10.20
2023-05-15T00:15:02.367Z,10.10
2023-05-15T00:17:30.244Z,10.20
2023-05-15T00:19:59.735Z,10.30
2023-05-15T00:22:27.694Z,10.40
2023-05-15T00:24:55.626Z,10.30
2023-05-15T00:27:23.530Z,10.30
2023-05-15T00:29:51.462Z,10.40
2023-05-15T00:32:20.789Z,10.30
2023-05-15T00:34:48.736Z,10.20
2023-05-15T00:37:16.629Z,10.20
2023-05-15T00:39:44.559Z,10.20
2023-05-15T00:42:12.432Z,10.30
2023-05-15T00:44:40.418Z,10.20
2023-05-15T00:47:08.749Z,10.20
2023-05-15T00:49:38.070Z,10.30
2023-05-15T00:52:08.450Z,10.30
2023-05-15T00:54:36.439Z,10.20
2023-05-15T00:57:05.128Z,10.30
2023-05-15T00:59:33.063Z,10.10
2023-05-15T01:02:00.962Z,10.20
2023-05-15T01:04:28.940Z,10.10
2023-05-15T01:06:58.306Z,10.20
2023-05-15T01:09:26.119Z,10.30
2023-05-15T01:11:55.385Z,10.20
2023-05-15T01:14:23.301Z,10.20
2023-05-15T01:16:51.468Z,10.10
2023-05-15T01:19:19.437Z,10.10
2023-05-15T01:22:17.297Z,10.00
2023-05-15T01:24:59.563Z,10.10
2023-05-15T01:27:30.100Z,10.10
2023-05-15T01:30:01.703Z,10.10
2023-05-15T01:32:40.614Z,10.30
2023-05-15T01:35:11.863Z,10.20
2023-05-15T01:37:42.506Z,10.10
2023-05-15T01:40:11.093Z,10.10
2023-05-15T01:42:43.122Z,10.20
2023-05-15T01:45:12.623Z,10.10
2023-05-15T01:47:41.907Z,10.20
2023-05-15T01:50:10.938Z,10.30
2023-05-15T01:52:41.048Z,10.10
2023-05-15T01:55:09.464Z,10.20
2023-05-15T01:57:37.362Z,10.30
2023-05-15T02:00:08.342Z,10.20
2023-05-15T02:02:36.205Z,10.20
2023-05-15T02:05:04.209Z,10.10
2023-05-15T02:07:32.188Z,9.90
2023-05-15T02:10:00.076Z,10.20
2023-05-15T02:12:28.238Z,10.20
2023-05-15T02:14:56.028Z,10.10
2023-05-15T02:17:25.557Z,10.00
2023-05-15T02:19:53.379Z,10.10
2023-05-15T02:22:21.163Z,10.00
2023-05-15T02:24:48.942Z,10.00
2023-05-15T02:27:20.828Z,10.00
2023-05-15T02:29:56.313Z,10.00
2023-05-15T02:32:29.676Z,10.00
2023-05-15T02:35:02.844Z,10.10
2023-05-15T02:37:34.084Z,10.20
2023-05-15T02:40:01.952Z,9.90
2023-05-15T02:42:30.227Z,9.80
2023-05-15T02:44:58.120Z,9.90
2023-05-15T02:47:27.303Z,9.90
2023-05-15T02:49:55.101Z,10.10
2023-05-15T02:52:24.401Z,10.10
2023-05-15T02:54:52.240Z,9.90
2023-05-15T02:57:20.034Z,9.90
2023-05-15T02:59:47.836Z,9.80
2023-05-15T03:02:15.659Z,9.90
2023-05-15T03:04:44.842Z,9.80
2023-05-15T03:07:14.354Z,9.90
2023-05-15T03:09:42.164Z,9.90
2023-05-15T03:12:11.441Z,9.90
2023-05-15T03:14:39.262Z,9.90
2023-05-15T03:17:07.174Z,9.90
2023-05-15T03:19:35.036Z,9.90
2023-05-15T03:22:04.290Z,10.00
2023-05-15T03:24:32.084Z,10.00
2023-05-15T03:26:59.876Z,10.10
2023-05-15T03:29:27.676Z,10.10
2023-05-15T03:31:55.604Z,9.80
2023-05-15T03:34:23.540Z,9.90
2023-05-15T03:36:51.434Z,9.80
2023-05-15T03:39:20.596Z,9.90
2023-05-15T03:41:48.382Z,10.00
2023-05-15T03:44:16.184Z,9.90
2023-05-15T03:46:44.041Z,9.90
2023-05-15T03:49:11.975Z,9.80
2023-05-15T03:51:39.756Z,9.90
2023-05-15T03:54:07.649Z,9.80
2023-05-15T03:56:36.801Z,9.70
2023-05-15T03:59:04.708Z,9.90
2023-05-15T04:01:32.557Z,9.80
2023-05-15T04:04:00.347Z,9.90
2023-05-15T04:06:28.178Z,9.90
2023-05-15T04:08:55.976Z,10.10
2023-05-15T04:11:23.955Z,10.00
2023-05-15T04:13:53.074Z,10.10
2023-05-15T04:16:21.395Z,10.00
2023-05-15T04:18:49.406Z,10.10
2023-05-15T04:21:17.211Z,10.10
2023-05-15T04:23:45.007Z,10.20
2023-05-15T04:26:12.826Z,10.20
2023-05-15T04:28:49.295Z,10.20
2023-05-15T04:31:22.542Z,10.10
2023-05-15T04:33:51.334Z,10.00
2023-05-15T04:36:19.343Z,10.10
2023-05-15T04:38:47.189Z,9.90
2023-05-15T04:41:14.988Z,10.10
2023-05-15T04:43:42.989Z,10.00
2023-05-15T04:46:10.804Z,10.10
2023-05-15T04:48:40.029Z,9.90
2023-05-15T04:51:08.125Z,10.00
2023-05-15T04:53:35.952Z,10.10
2023-05-15T04:56:03.732Z,10.10
2023-05-15T04:58:31.545Z,10.10
2023-05-15T05:01:00.804Z,10.20
2023-05-15T05:03:30.109Z,10.00
2023-05-15T05:05:59.282Z,10.10
2023-05-15T05:08:27.082Z,10.20
2023-05-15T05:10:57.249Z,10.30
2023-05-15T05:13:25.045Z,10.20
2023-05-15T05:15:52.920Z,10.40
2023-05-15T05:18:20.719Z,10.30
2023-05-15T05:20:48.537Z,10.40
2023-05-15T05:23:18.244Z,10.30
2023-05-15T05:25:46.065Z,10.50
2023-05-15T05:28:13.849Z,10.40
2023-05-15T05:30:41.651Z,10.20
2023-05-15T05:33:09.499Z,10.30
2023-05-15T05:35:37.350Z,10.30
2023-05-15T05:38:05.225Z,10.30
2023-05-15T05:40:34.362Z,10.30
2023-05-15T05:43:02.226Z,10.40
2023-05-15T05:45:30.035Z,10.40
2023-05-15T05:47:57.839Z,10.30
2023-05-15T05:50:25.733Z,10.30
2023-05-15T05:52:53.719Z,10.20
2023-05-15T05:55:21.575Z,10.30
2023-05-15T05:57:51.051Z,10.50
2023-05-15T06:00:19.770Z,10.60
2023-05-15T06:02:47.736Z,10.60
2023-05-15T06:05:15.608Z,10.60
2023-05-15T06:07:43.387Z,10.70
2023-05-15T06:10:12.850Z,10.60
2023-05-15T06:12:40.627Z,10.50
2023-05-15T06:15:10.683Z,10.70
2023-05-15T06:17:38.599Z,10.80
2023-05-15T06:20:08.305Z,10.90
2023-05-15T06:22:36.881Z,11.00
2023-05-15T06:25:05.823Z,10.90
2023-05-15T06:27:33.713Z,10.90
2023-05-15T06:30:01.520Z,10.90
2023-05-15T06:32:32.008Z,10.90
2023-05-15T06:35:01.621Z,10.90
2023-05-15T06:37:29.831Z,10.90
2023-05-15T06:39:57.612Z,10.90
2023-05-15T06:42:25.482Z,11.10
2023-05-15T06:44:53.283Z,11.10
2023-05-15T06:47:21.089Z,11.20
2023-05-15T06:49:50.411Z,11.10
2023-05-15T06:52:18.196Z,11.10
2023-05-15T06:54:46.002Z,11.20
2023-05-15T06:57:13.865Z,11.20
2023-05-15T06:59:41.669Z,11.30
2023-05-15T07:02:09.496Z,11.30
2023-05-15T07:04:37.428Z,11.30
2023-05-15T07:07:07.118Z,11.30
2023-05-15T07:09:35.415Z,11.30
2023-05-15T07:12:03.714Z,11.30
2023-05-15T07:14:31.493Z,11.30
2023-05-15T07:16:59.316Z,11.40
2023-05-15T07:19:27.242Z,11.40
2023-05-15T07:21:55.100Z,11.50
2023-05-15T07:24:24.220Z,11.60
2023-05-15T07:29:25.178Z,11.70
2023-05-15T07:31:53.023Z,11.70
2023-05-15T07:34:20.840Z,11.80
2023-05-15T07:36:48.638Z,12.00
2023-05-15T07:39:16.910Z,12.20
2023-05-15T07:41:46.976Z,12.30
2023-05-15T07:44:14.802Z,12.50
2023-05-15T07:46:42.801Z,12.70
2023-05-15T07:49:10.750Z,12.90
2023-05-15T07:51:38.557Z,13.20
2023-05-15T07:54:06.698Z,12.90
2023-05-15T07:56:34.512Z,12.60
2023-05-15T07:59:03.818Z,12.70
2023-05-15T08:01:32.740Z,13.10
2023-05-15T08:04:00.831Z,13.40
2023-05-15T08:06:28.741Z,13.70
2023-05-15T08:08:56.561Z,14.00
2023-05-15T08:11:24.371Z,14.10
2023-05-15T08:13:52.227Z,14.20
2023-05-15T08:16:21.385Z,13.90
2023-05-15T08:18:53.004Z,13.70
2023-05-15T08:21:20.920Z,13.80
2023-05-15T08:23:48.711Z,13.30
2023-05-15T08:26:16.486Z,12.40
2023-05-15T08:28:44.307Z,11.70
2023-05-15T08:31:12.134Z,11.60
2023-05-15T08:33:41.295Z,11.10
2023-05-15T08:36:09.813Z,11.20
2023-05-15T08:38:37.625Z,11.30
2023-05-15T08:41:08.609Z,11.50
2023-05-15T08:43:36.785Z,11.50
2023-05-15T08:46:04.762Z,11.50
2023-05-15T08:48:32.679Z,11.40
2023-05-15T08:51:02.087Z,11.50
2023-05-15T08:53:30.305Z,11.20
2023-05-15T08:55:58.105Z,11.20
2023-05-15T08:58:27.181Z,11.30
2023-05-15T09:00:54.971Z,11.20
2023-05-15T09:03:23.433Z,11.40
2023-05-15T09:05:52.323Z,11.40
2023-05-15T09:08:21.701Z,11.60
2023-05-15T09:10:49.843Z,11.70
2023-05-15T09:13:17.653Z,11.60
2023-05-15T09:15:46.706Z,11.80
2023-05-15T09:18:14.769Z,11.50
2023-05-15T09:20:42.568Z,11.50
2023-05-15T09:23:25.216Z,11.20
2023-05-15T09:25:55.544Z,11.10
2023-05-15T09:28:28.266Z,11.40
2023-05-15T09:31:00.961Z,11.70
2023-05-15T09:33:30.324Z,11.40
2023-05-15T09:35:58.123Z,11.70
2023-05-15T09:38:27.285Z,11.70
2023-05-15T09:41:02.461Z,11.50
2023-05-15T09:43:30.765Z,11.40
2023-05-15T09:45:58.727Z,11.50
2023-05-15T09:48:26.740Z,11.50
2023-05-15T09:50:54.876Z,11.50
2023-05-15T09:53:23.153Z,11.30
2023-05-15T09:55:53.034Z,11.40
2023-05-15T09:58:20.868Z,11.70
2023-05-15T10:00:49.676Z,12.00
2023-05-15T10:03:18.926Z,12.50
2023-05-15T10:05:46.875Z,12.90
2023-05-15T10:08:16.118Z,13.20
2023-05-15T10:10:44.333Z,13.80
2023-05-15T10:13:13.452Z,14.50
2023-05-15T10:15:41.475Z,14.10
2023-05-15T10:18:09.509Z,14.20
2023-05-15T10:20:37.366Z,13.80
2023-05-15T10:23:05.834Z,13.30
2023-05-15T10:25:36.358Z,12.80
2023-05-15T10:28:04.399Z,12.20
2023-05-15T10:30:34.231Z,12.40
2023-05-15T10:33:02.081Z,12.20
2023-05-15T10:35:29.963Z,12.00
2023-05-15T10:37:57.781Z,11.90
2023-05-15T10:40:25.991Z,11.70
2023-05-15T10:42:53.988Z,11.50
2023-05-15T10:45:21.798Z,11.60
2023-05-15T10:47:51.026Z,11.80
2023-05-15T10:50:18.840Z,11.80
2023-05-15T10:52:46.614Z,12.10
2023-05-15T10:55:15.624Z,11.90
2023-05-15T10:57:43.678Z,12.00
2023-05-15T11:00:27.760Z,12.00
2023-05-15T11:02:58.712Z,12.20
2023-05-15T11:05:26.837Z,12.50
2023-05-15T11:08:25.889Z,12.40
2023-05-15T11:10:53.863Z,13.00
2023-05-15T11:13:21.794Z,13.10
2023-05-15T11:15:49.589Z,13.50
2023-05-15T11:18:18.901Z,13.40
2023-05-15T11:21:07.653Z,13.70
2023-05-15T11:23:42.101Z,14.10
2023-05-15T11:26:10.171Z,14.10
2023-05-15T11:28:44.837Z,13.80
2023-05-15T11:31:12.708Z,13.60
2023-05-15T11:33:41.925Z,13.50
2023-05-15T11:36:09.853Z,13.40
2023-05-15T11:38:38.993Z,13.20
2023-05-15T11:41:18.273Z,13.30
2023-05-15T11:43:46.145Z,13.10
2023-05-15T11:46:14.984Z,12.90
2023-05-15T11:48:44.741Z,12.70
2023-05-15T11:51:16.929Z,12.50
2023-05-15T11:53:44.711Z,12.80
2023-05-15T11:56:14.849Z,12.30
2023-05-15T11:58:43.796Z,12.40
2023-05-15T12:01:11.747Z,12.30
2023-05-15T12:03:42.603Z,12.30
2023-05-15T12:06:11.911Z,12.40
2023-05-15T12:08:39.916Z,12.50
2023-05-15T12:11:07.997Z,12.70
2023-05-15T12:13:35.809Z,12.90
2023-05-15T12:16:04.390Z,13.20
2023-05-15T12:18:33.042Z,13.50
2023-05-15T12:21:05.259Z,13.50
2023-05-15T12:23:34.397Z,13.70
2023-05-15T12:26:02.617Z,14.20
2023-05-15T12:28:31.087Z,14.80
2023-05-15T12:30:58.890Z,15.30
2023-05-15T12:33:26.750Z,15.00
2023-05-15T12:35:58.924Z,15.00
2023-05-15T12:38:28.043Z,15.30
2023-05-15T12:40:57.600Z,14.60
2023-05-15T12:43:26.035Z,14.50
2023-05-15T12:45:54.082Z,15.00
2023-05-15T12:48:22.366Z,14.70
2023-05-15T12:50:51.519Z,14.20
2023-05-15T12:53:19.326Z,14.60
2023-05-15T12:55:47.430Z,14.80
2023-05-15T12:58:18.762Z,14.60
2023-05-15T13:00:47.963Z,14.20
2023-05-15T13:03:16.085Z,14.40
2023-05-15T13:05:44.771Z,14.50
2023-05-15T13:08:16.437Z,14.50
2023-05-15T13:10:44.263Z,13.70
2023-05-15T13:13:12.160Z,13.30
2023-05-15T13:15:43.189Z,12.70
2023-05-15T13:18:11.451Z,12.90
2023-05-15T13:20:39.953Z,12.20
2023-05-15T13:23:08.026Z,12.00
2023-05-15T13:25:35.906Z,11.70
2023-05-15T13:28:04.756Z,11.10
2023-05-15T13:30:32.774Z,11.30
2023-05-15T13:33:02.107Z,11.30
2023-05-15T13:35:30.110Z,11.60
2023-05-15T13:37:57.929Z,11.50
2023-05-15T13:40:27.339Z,11.40
2023-05-15T13:42:55.298Z,11.50
2023-05-15T13:45:23.147Z,11.30
2023-05-15T13:47:51.608Z,11.10
2023-05-15T13:50:20.927Z,11.20
2023-05-15T13:52:48.784Z,11.20
2023-05-15T13:55:16.596Z,11.40
2023-05-15T13:57:45.311Z,11.20
2023-05-15T14:00:17.353Z,11.60
2023-05-15T14:02:45.641Z,11.60
2023-05-15T14:05:14.718Z,11.70
2023-05-15T14:07:43.854Z,11.70
2023-05-15T14:10:12.210Z,11.60
2023-05-15T14:12:40.034Z,11.80
2023-05-15T14:15:08.788Z,12.20
2023-05-15T14:17:36.596Z,12.30
2023-05-15T14:20:06.607Z,12.20
2023-05-15T14:22:34.378Z,12.60
2023-05-15T14:25:03.903Z,12.80
2023-05-15T14:27:31.692Z,12.60
2023-05-15T14:29:59.547Z,12.80
2023-05-15T14:32:27.339Z,12.60
2023-05-15T14:34:59.632Z,12.50
2023-05-15T14:37:28.340Z,12.50
2023-05-15T14:39:56.308Z,12.90
2023-05-15T14:42:25.506Z,13.00
2023-05-15T14:44:53.296Z,12.80
2023-05-15T14:47:21.176Z,12.70
2023-05-15T14:49:49.188Z,12.70
2023-05-15T14:52:17.012Z,13.00
2023-05-15T14:54:56.888Z,13.40
2023-05-15T14:57:30.272Z,13.40
2023-05-15T14:59:58.130Z,13.70
2023-05-15T15:02:26.005Z,13.90
2023-05-15T15:04:53.838Z,14.00
2023-05-15T15:07:21.657Z,14.20
2023-05-15T15:09:49.544Z,13.50
2023-05-15T15:12:17.341Z,13.40
2023-05-15T15:14:46.613Z,13.40
2023-05-15T15:17:14.847Z,13.10
2023-05-15T15:19:42.639Z,13.20
2023-05-15T15:22:10.430Z,13.30
2023-05-15T15:24:39.001Z,13.20
2023-05-15T15:27:07.235Z,13.20
2023-05-15T15:29:35.069Z,13.20
2023-05-15T15:32:04.509Z,12.90
2023-05-15T15:34:32.326Z,12.90
2023-05-15T15:37:00.140Z,12.80
2023-05-15T15:39:27.929Z,13.00
2023-05-15T15:41:56.799Z,12.80
2023-05-15T15:44:24.881Z,13.00
2023-05-15T15:46:52.691Z,13.10
2023-05-15T15:49:21.828Z,13.00
2023-05-15T15:51:49.694Z,13.10
2023-05-15T15:54:17.519Z,12.70
2023-05-15T15:56:47.430Z,12.50
2023-05-15T15:59:15.292Z,12.00
2023-05-15T16:01:43.078Z,12.10
2023-05-15T16:04:10.959Z,12.00
2023-05-15T16:06:40.164Z,11.90
2023-05-15T16:09:07.971Z,11.90
2023-05-15T16:11:35.805Z,11.80
2023-05-15T16:14:03.610Z,11.80
2023-05-15T16:16:31.521Z,11.70
2023-05-15T16:18:59.374Z,11.60
2023-05-15T16:21:27.196Z,11.50
2023-05-15T16:23:56.327Z,11.40
2023-05-15T16:26:24.094Z,11.00
2023-05-15T16:28:51.887Z,11.20
2023-05-15T16:31:19.680Z,11.40
2023-05-15T16:33:48.303Z,11.10
2023-05-15T16:36:16.091Z,11.00
2023-05-15T16:38:43.908Z,11.00
2023-05-15T16:41:13.042Z,11.30
2023-05-15T16:43:40.904Z,11.80
2023-05-15T16:46:10.094Z,11.30
2023-05-15T16:48:37.955Z,11.10
2023-05-15T16:51:06.156Z,11.20
2023-05-15T16:53:34.095Z,11.10
2023-05-15T16:56:01.945Z,10.90
2023-05-15T16:58:31.108Z,10.90
2023-05-15T17:00:58.906Z,10.70
2023-05-15T17:03:26.891Z,11.10
2023-05-15T17:05:54.747Z,11.00
2023-05-15T17:08:22.524Z,10.80
2023-05-15T17:10:50.346Z,10.90
2023-05-15T17:13:29.938Z,11.00
2023-05-15T17:15:59.093Z,11.10
2023-05-15T17:18:27.096Z,11.00
2023-05-15T17:20:54.905Z,10.90
2023-05-15T17:23:23.194Z,11.10
2023-05-15T17:25:51.309Z,11.20
2023-05-15T17:28:19.202Z,10.90
2023-05-15T17:30:47.003Z,11.20
2023-05-15T17:33:16.221Z,11.00
2023-05-15T17:35:44.056Z,11.20
2023-05-15T17:38:11.864Z,11.10
2023-05-15T17:40:39.843Z,11.30
2023-05-15T17:43:09.716Z,11.10
2023-05-15T17:45:37.533Z,11.40
2023-05-15T17:48:05.856Z,11.40
2023-05-15T17:50:37.971Z,11.50
2023-05-15T17:53:05.831Z,11.50
2023-05-15T17:55:33.645Z,11.50
2023-05-15T17:58:01.548Z,11.40
2023-05-15T18:00:29.333Z,11.60
2023-05-15T18:02:57.222Z,11.60
2023-05-15T18:05:25.291Z,11.40
2023-05-15T18:07:56.565Z,11.40
2023-05-15T18:10:24.508Z,11.20
2023-05-15T18:12:52.750Z,11.10
2023-05-15T18:15:20.561Z,11.20
2023-05-15T18:17:48.386Z,11.10
2023-05-15T18:20:16.254Z,11.10
2023-05-15T18:22:45.929Z,11.50
2023-05-15T18:25:15.111Z,11.10
2023-05-15T18:27:43.015Z,10.90
2023-05-15T18:30:11.739Z,11.00
2023-05-15T18:32:39.662Z,11.10
2023-05-15T18:35:08.304Z,10.90
2023-05-15T18:37:36.145Z,10.90
2023-05-15T18:40:04.047Z,10.70
2023-05-15T18:42:33.230Z,10.70
2023-05-15T18:45:01.994Z,10.70
2023-05-15T18:47:30.000Z,10.70
2023-05-15T18:49:57.994Z,10.80
2023-05-15T18:52:26.822Z,10.80
2023-05-15T18:54:54.893Z,10.80
2023-05-15T18:57:22.710Z,10.90
2023-05-15T18:59:52.733Z,11.10
2023-05-15T19:02:20.841Z,11.30
2023-05-15T19:04:54.300Z,11.00
2023-05-15T19:07:22.192Z,10.90
2023-05-15T19:09:49.964Z,10.80
2023-05-15T19:12:17.797Z,10.80
2023-05-15T19:14:45.683Z,10.70
2023-05-15T19:17:15.366Z,10.60
2023-05-15T19:19:43.171Z,10.60
2023-05-15T19:22:10.956Z,10.70
2023-05-15T19:24:38.788Z,10.60
2023-05-15T19:27:07.442Z,10.50
2023-05-15T19:29:35.276Z,10.50
2023-05-15T19:32:04.088Z,10.50
2023-05-15T19:34:33.265Z,10.40
2023-05-15T19:37:01.346Z,10.40
2023-05-15T19:39:29.130Z,10.50
2023-05-15T19:41:57.880Z,10.30
2023-05-15T19:44:25.691Z,10.30
2023-05-15T19:46:54.629Z,10.20
2023-05-15T19:49:22.586Z,10.20
2023-05-15T19:51:52.024Z,10.20
2023-05-15T19:54:19.823Z,10.10
2023-05-15T19:56:50.740Z,10.10
2023-05-15T19:59:18.532Z,10.10
2023-05-15T20:01:46.375Z,10.20
2023-05-15T20:04:14.234Z,10.50
2023-05-15T20:06:42.026Z,10.20
2023-05-15T20:09:11.190Z,10.30
2023-05-15T20:11:38.995Z,10.30
2023-05-15T20:14:06.801Z,10.20
2023-05-15T20:16:34.674Z,10.10
2023-05-15T20:19:02.543Z,10.20
2023-05-15T20:21:31.375Z,10.20
2023-05-15T20:23:59.219Z,10.30
2023-05-15T20:26:28.391Z,10.30
2023-05-15T20:28:56.214Z,10.50
2023-05-15T20:31:24.137Z,10.40
2023-05-15T20:33:57.128Z,10.50
2023-05-15T20:36:26.154Z,10.70
2023-05-15T20:38:55.009Z,10.60
2023-05-15T20:41:23.303Z,10.60
2023-05-15T20:43:52.531Z,10.40
2023-05-15T20:46:20.798Z,10.50
2023-05-15T20:48:48.825Z,10.40
2023-05-15T20:51:16.833Z,10.20
2023-05-15T20:53:44.653Z,10.40
2023-05-15T20:56:12.449Z,10.50
2023-05-15T20:58:40.243Z,10.40
2023-05-15T21:01:09.460Z,10.30
2023-05-15T21:03:37.343Z,10.30
2023-05-15T21:06:05.533Z,10.00
2023-05-15T21:08:33.314Z,10.00
2023-05-15T21:11:01.264Z,9.90
2023-05-15T21:13:29.072Z,10.00
2023-05-15T21:15:57.401Z,9.90
2023-05-15T21:18:26.524Z,10.00
2023-05-15T21:20:54.327Z,10.10
2023-05-15T21:23:22.132Z,10.00
2023-05-15T21:25:49.933Z,10.10
2023-05-15T21:28:17.764Z,10.10
2023-05-15T21:30:45.583Z,10.00
2023-05-15T21:33:13.489Z,10.10
2023-05-15T21:35:42.611Z,10.00
2023-05-15T21:38:10.483Z,10.00
2023-05-15T21:40:38.247Z,9.90
2023-05-15T21:43:06.045Z,10.00
2023-05-15T21:45:33.854Z,10.10
2023-05-15T21:48:01.930Z,10.00
2023-05-15T21:50:29.893Z,9.90
2023-05-15T21:52:59.150Z,9.90
2023-05-15T21:55:27.058Z,9.90
2023-05-15T21:57:54.840Z,9.80
2023-05-15T22:00:22.647Z,9.90
2023-05-15T22:02:50.776Z,9.90
2023-05-15T22:05:18.636Z,9.80
2023-05-15T22:07:46.424Z,9.80
2023-05-15T22:10:16.540Z,9.80
2023-05-15T22:12:44.774Z,9.90
2023-05-15T22:15:14.411Z,9.80
2023-05-15T22:17:42.303Z,9.80
2023-05-15T22:20:11.474Z,9.70
2023-05-15T22:22:39.841Z,9.80
2023-05-15T22:25:08.555Z,9.80
2023-05-15T22:27:37.736Z,9.70
2023-05-15T22:30:06.739Z,9.80
2023-05-15T22:32:34.593Z,9.90
2023-05-15T22:35:02.512Z,9.80
2023-05-15T22:37:30.348Z,9.90
2023-05-15T22:39:58.196Z,9.90
2023-05-15T22:42:27.794Z,9.90
2023-05-15T22:44:57.708Z,9.80
2023-05-15T22:47:26.003Z,10.00
2023-05-15T22:49:54.003Z,9.90
2023-05-15T22:52:21.907Z,10.10
2023-05-15T22:54:49.732Z,10.10
2023-05-15T22:57:17.551Z,10.00
2023-05-15T22:59:45.603Z,10.00
2023-05-15T23:02:14.728Z,10.20
2023-05-15T23:04:43.326Z,10.00
2023-05-15T23:07:11.126Z,10.00
2023-05-15T23:09:38.885Z,10.10
2023-05-15T23:12:07.450Z,10.50
2023-05-15T23:14:35.395Z,10.00
2023-05-15T23:17:03.680Z,10.00
2023-05-15T23:19:32.925Z,10.00
2023-05-15T23:22:00.784Z,10.10
2023-05-15T23:24:28.584Z,9.90
2023-05-15T23:26:56.381Z,9.90
2023-05-15T23:29:24.161Z,9.90
2023-05-15T23:31:52.000Z,9.90
2023-05-15T23:34:19.820Z,10.10
2023-05-15T23:36:48.956Z,10.10
2023-05-15T23:39:16.880Z,10.20
2023-05-15T23:41:44.683Z,9.90
2023-05-15T23:44:12.456Z,9.90
2023-05-15T23:46:40.375Z,9.80
2023-05-15T23:49:08.150Z,9.80
2023-05-15T23:51:35.951Z,9.80
2023-05-15T23:54:05.352Z,9.70
2023-05-15T23:56:33.132Z,9.90
2023-05-15T23:59:01.133Z,9.90
